Time;durP1;ratioP1;P1;durP2;ratioP2;P2;SDS_P1;SDS_P2;PMS_P1;PMS_P2;Temp;Humidity;BMP_temperature;BMP_pressure;BME280_temperature;BME280_humidity;BME280_pressure;Samples;Min_cycle;Max_cycle;Signal;HPM_P1;HPM_P2
2021/10/16 00:01:13;;;;;;;24.50;12.50;;;;;;;1.73;75.62;101666.36;1753256;82;21189;-67
2021/10/16 00:03:49;;;;;;;22.65;11.78;;;;;;;1.72;75.75;101667.27;1737256;82;21839;-66
2021/10/16 00:06:24;;;;;;;22.85;11.90;;;;;;;1.72;75.79;101662.92;1753733;82;21255;-66
2021/10/16 00:08:59;;;;;;;22.17;11.50;;;;;;;1.72;75.82;101663.39;1752780;82;21858;-66
2021/10/16 00:11:38;;;;;;;24.65;12.15;;;;;;;1.69;75.80;101657.02;1752568;82;21252;-66
2021/10/16 00:14:13;;;;;;;28.42;13.03;;;;;;;1.67;75.80;101654.47;1753209;82;21184;-66
2021/10/16 00:16:51;;;;;;;23.77;12.07;;;;;;;1.65;75.75;101651.56;1753879;82;21268;-66
2021/10/16 00:19:26;;;;;;;19.73;11.28;;;;;;;1.62;75.79;101652.94;1752527;82;21177;-67
2021/10/16 00:22:00;;;;;;;24.25;12.10;;;;;;;1.58;75.66;101647.00;1752618;82;21929;-66
2021/10/16 00:24:35;;;;;;;27.17;13.30;;;;;;;1.54;75.72;101648.44;1752289;82;21185;-66
2021/10/16 00:27:08;;;;;;;20.85;11.80;;;;;;;1.53;75.87;101643.71;1753813;82;21368;-66
2021/10/16 00:29:47;;;;;;;17.45;8.93;;;;;;;1.51;75.79;101641.62;1753002;82;21335;-66
2021/10/16 00:32:24;;;;;;;25.00;12.58;;;;;;;1.53;75.81;101648.05;1752599;82;21256;-67
2021/10/16 00:35:00;;;;;;;21.57;11.95;;;;;;;1.51;75.80;101644.20;1752602;82;21287;-66
2021/10/16 00:37:34;;;;;;;20.50;11.73;;;;;;;1.52;75.75;101649.78;1753498;82;21609;-66
2021/10/16 00:40:12;;;;;;;23.77;11.93;;;;;;;1.50;75.67;101645.12;1752803;82;21292;-66
2021/10/16 00:42:50;;;;;;;21.42;10.58;;;;;;;1.47;75.50;101643.05;1752427;81;21137;-66
2021/10/16 00:45:26;;;;;;;16.93;10.50;;;;;;;1.45;75.44;101644.84;1752545;82;21173;-67
2021/10/16 00:48:10;;;;;;;16.00;9.80;;;;;;;1.41;75.42;101640.20;1753947;82;21252;-66
2021/10/16 00:50:45;;;;;;;18.35;10.32;;;;;;;1.38;75.38;101641.60;1752261;82;21299;-66
2021/10/16 00:53:18;;;;;;;17.07;9.27;;;;;;;1.35;75.43;101636.08;1754164;82;21248;-66
2021/10/16 00:55:51;;;;;;;;;;;;;;;1.34;75.37;101636.11;1750664;82;21158;-67
2021/10/16 00:58:24;;;;;;;18.02;9.00;;;;;;;1.31;75.43;101631.06;1738829;81;20176;-67
2021/10/16 01:00:58;;;;;;;21.05;9.53;;;;;;;1.28;75.56;101639.73;1740239;82;21281;-66
2021/10/16 01:03:36;;;;;;;15.90;8.50;;;;;;;1.27;75.57;101635.88;1740624;82;21299;-66
2021/10/16 01:06:12;;;;;;;19.95;9.35;;;;;;;1.29;75.70;101632.84;1730611;82;21213;-66
2021/10/16 01:08:48;;;;;;;16.62;9.53;;;;;;;1.29;75.61;101632.84;1740678;82;21256;-67
2021/10/16 01:11:43;;;;;;;19.48;10.75;;;;;;;1.27;75.56;101635.45;1740227;82;21182;-68
2021/10/16 01:14:19;;;;;;;25.88;10.38;;;;;;;1.27;75.60;101633.30;1739444;82;21756;-67
2021/10/16 01:16:53;;;;;;;20.95;10.23;;;;;;;1.26;75.64;101635.50;1740726;82;21256;-67
2021/10/16 01:19:27;;;;;;;14.23;8.78;;;;;;;1.27;75.68;101635.45;1739529;82;21153;-68
2021/10/16 01:22:00;;;;;;;16.05;8.30;;;;;;;1.28;75.68;101631.98;1740396;82;21272;-66
2021/10/16 01:24:39;;;;;;;18.02;9.98;;;;;;;1.30;75.60;101637.09;1740494;82;21799;-66
2021/10/16 01:27:15;;;;;;;21.93;10.80;;;;;;;1.29;75.55;101640.11;1740542;82;21257;-66
2021/10/16 01:29:54;;;;;;;24.15;12.35;;;;;;;1.27;75.39;101635.45;1739427;82;21153;-66
2021/10/16 01:32:27;;;;;;;23.02;11.22;;;;;;;1.24;75.43;101639.39;1739914;82;21257;-66
2021/10/16 01:35:00;;;;;;;18.07;10.38;;;;;;;1.23;75.43;101640.73;1740589;82;21280;-66
2021/10/16 01:37:33;;;;;;;;;;;;;;;1.20;75.43;101643.40;1743214;82;21301;-66
2021/10/16 01:40:08;;;;;;;18.42;10.08;;;;;;;1.20;75.52;101633.94;1740431;82;20619;-66
2021/10/16 01:42:45;;;;;;;16.85;9.08;;;;;;;1.17;75.46;101631.43;1739513;82;21315;-66
2021/10/16 01:45:22;;;;;;;15.65;9.08;;;;;;;1.15;75.38;101637.08;1740232;82;21331;-67
2021/10/16 01:48:07;;;;;;;17.20;9.53;;;;;;;1.12;75.22;101635.05;1740758;82;21249;-66
2021/10/16 01:50:46;;;;;;;19.98;9.48;;;;;;;1.09;75.32;101629.53;1740242;82;21268;-66
2021/10/16 01:53:27;;;;;;;19.48;9.95;;;;;;;1.08;75.37;101636.85;1739437;82;21253;-66
2021/10/16 01:56:04;;;;;;;16.27;9.58;;;;;;;1.07;75.40;101626.16;1739599;82;21166;-67
2021/10/16 01:58:45;;;;;;;18.23;9.98;;;;;;;1.05;75.41;101624.03;1738927;81;21359;-66
2021/10/16 02:01:23;;;;;;;17.25;9.58;;;;;;;1.06;75.47;101626.17;1746121;82;21168;-66
2021/10/16 02:04:02;;;;;;;19.20;9.53;;;;;;;1.06;75.53;101630.05;1747066;82;21269;-66
2021/10/16 02:06:37;;;;;;;28.32;11.48;;;;;;;1.06;75.48;101618.44;1747251;82;21291;-66
2021/10/16 02:09:15;;;;;;;18.95;10.30;;;;;;;1.06;75.45;101614.58;1747196;81;21193;-66
2021/10/16 02:11:48;;;;;;;28.38;11.97;;;;;;;1.04;75.45;101611.20;1747335;82;21279;-66
2021/10/16 02:14:25;;;;;;;20.97;11.12;;;;;;;1.03;75.35;101609.05;1748373;82;21280;-67
2021/10/16 02:17:00;;;;;;;22.62;10.90;;;;;;;1.01;75.33;101606.97;1747046;82;21216;-66
2021/10/16 02:19:34;;;;;;;27.00;11.75;;;;;;;0.98;75.26;101609.63;1748607;82;21181;-67
2021/10/16 02:22:10;;;;;;;36.85;13.55;;;;;;;0.96;75.26;101603.67;1747480;82;21280;-66
2021/10/16 02:24:47;;;;;;;22.30;11.65;;;;;;;0.96;75.35;101606.69;1748668;82;21146;-66
2021/10/16 02:27:26;;;;;;;19.42;11.10;;;;;;;0.96;75.29;101598.95;1746856;82;21327;-67
2021/10/16 02:30:02;;;;;;;24.72;10.60;;;;;;;0.95;75.30;101602.44;1748505;82;21440;-66
2021/10/16 02:32:39;;;;;;;28.12;11.63;;;;;;;0.96;75.33;101600.24;1747840;81;21169;-65
2021/10/16 02:35:14;;;;;;;21.33;10.15;;;;;;;0.95;75.30;101594.70;1746970;81;21672;-65
2021/10/16 02:37:47;;;;;;;23.07;10.60;;;;;;;0.92;75.36;101599.94;1748879;82;21673;-65
2021/10/16 02:40:23;;;;;;;20.90;10.78;;;;;;;0.91;75.28;101592.64;1748896;82;21809;-66
2021/10/16 02:42:56;;;;;;;23.70;11.95;;;;;;;0.93;75.49;101592.61;1748241;82;21268;-66
2021/10/16 02:45:32;;;;;;;23.32;11.80;;;;;;;0.92;75.49;101599.94;1746507;81;21169;-67
2021/10/16 02:48:05;;;;;;;26.10;11.70;;;;;;;0.94;75.57;101593.00;1748518;82;21253;-66
2021/10/16 02:50:38;;;;;;;23.27;11.20;;;;;;;0.96;75.63;101592.50;1747495;82;21311;-67
2021/10/16 02:53:13;;;;;;;22.48;11.25;;;;;;;0.96;75.57;101586.91;1748170;82;21300;-66
2021/10/16 02:55:54;;;;;;;21.25;10.95;;;;;;;0.97;75.58;101590.34;1748778;82;22000;-66
2021/10/16 02:58:30;;;;;;;22.15;11.40;;;;;;;0.97;75.56;101589.91;1748391;82;21181;-66
2021/10/16 03:01:09;;;;;;;23.47;12.37;;;;;;;0.99;75.57;101589.84;1744523;82;21276;-66
2021/10/16 03:03:53;;;;;;;23.20;12.50;;;;;;;0.98;75.57;101577.39;1739738;81;21182;-65
2021/10/16 03:06:29;;;;;;;26.17;11.70;;;;;;;0.98;75.47;101581.27;1740182;82;21181;-66
2021/10/16 03:09:02;;;;;;;22.25;11.35;;;;;;;0.98;75.52;101586.89;1739108;82;21146;-65
2021/10/16 03:11:38;;;;;;;23.73;11.48;;;;;;;0.99;75.55;101579.09;1739130;82;21320;-66
2021/10/16 03:14:14;;;;;;;28.67;12.05;;;;;;;1.01;75.60;101580.33;1740135;82;21773;-66
2021/10/16 03:16:52;;;;;;;21.12;10.98;;;;;;;1.03;75.62;101583.70;1737408;82;21194;-66
2021/10/16 03:19:30;;;;;;;24.55;12.53;;;;;;;1.04;75.55;101579.81;1740198;82;21780;-66
2021/10/16 03:22:09;;;;;;;22.70;11.15;;;;;;;1.03;75.46;101579.84;1739866;82;21294;-65
2021/10/16 03:24:45;;;;;;;25.48;10.93;;;;;;;1.04;75.52;101573.80;1739306;82;21331;-65
2021/10/16 03:27:18;;;;;;;22.00;11.88;;;;;;;1.06;75.47;101570.73;1739744;82;21306;-65
2021/10/16 03:29:52;;;;;;;20.88;11.45;;;;;;;1.11;75.54;101567.58;1740660;82;21281;-65
2021/10/16 03:32:27;;;;;;;24.20;10.90;;;;;;;1.17;75.49;101572.58;1729470;82;21272;-67
2021/10/16 03:35:00;;;;;;;30.55;12.03;;;;;;;1.21;75.53;101563.84;1739510;82;21677;-66
2021/10/16 03:37:34;;;;;;;23.45;10.65;;;;;;;1.26;75.44;101560.25;1739868;82;21309;-65
2021/10/16 03:40:10;;;;;;;20.32;10.48;;;;;;;1.30;75.32;101555.39;1740732;82;21154;-66
2021/10/16 03:42:47;;;;;;;20.68;10.88;;;;;;;1.32;75.23;101557.48;1739817;82;21146;-66
2021/10/16 03:45:22;;;;;;;24.32;12.13;;;;;;;1.34;75.15;101559.56;1739500;82;21269;-68
2021/10/16 03:47:59;;;;;;;23.30;11.18;;;;;;;1.35;75.13;101556.54;1738100;82;21158;-66
2021/10/16 03:50:36;;;;;;;20.68;11.48;;;;;;;1.36;75.08;101558.24;1739425;82;21704;-65
2021/10/16 03:53:08;;;;;;;24.20;11.05;;;;;;;1.36;75.06;101553.90;1739478;82;22135;-66
2021/10/16 03:55:41;;;;;;;29.35;12.03;;;;;;;1.40;75.03;101558.98;1739530;82;21521;-65
2021/10/16 03:58:21;;;;;;;26.85;13.10;;;;;;;1.37;74.89;101556.05;1739934;82;21285;-65
2021/10/16 04:01:02;;;;;;;23.35;11.53;;;;;;;1.34;74.77;101551.82;1730474;82;21213;-65
2021/10/16 04:03:37;;;;;;;21.73;11.50;;;;;;;1.31;74.63;101556.24;1738648;81;21177;-66
2021/10/16 04:06:13;;;;;;;20.55;11.75;;;;;;;1.31;74.58;101555.77;1740721;82;21253;-67
2021/10/16 04:08:46;;;;;;;23.07;11.30;;;;;;;1.53;74.51;101558.55;1739381;82;21284;-67
2021/10/16 04:11:26;;;;;;;18.48;10.55;;;;;;;1.78;74.12;101563.80;1738974;82;21137;-68
2021/10/16 04:14:04;;;;;;;22.60;10.65;;;;;;;1.88;73.65;101562.61;1739290;82;21276;-69
2021/10/16 04:16:36;;;;;;;24.50;10.98;;;;;;;2.13;73.45;101548.42;1740758;82;21292;-69
2021/10/16 04:19:12;;;;;;;25.15;10.60;;;;;;;2.71;72.97;101542.49;1739697;82;21768;-70
2021/10/16 04:21:46;;;;;;;22.30;11.05;;;;;;;3.45;71.87;101541.86;1740573;82;21320;-69
2021/10/16 04:24:25;;;;;;;17.52;10.18;;;;;;;4.19;70.53;101550.03;1738977;82;21332;-68
2021/10/16 04:27:00;;;;;;;21.70;10.63;;;;;;;5.01;68.81;101542.55;1740647;82;21189;-68
2021/10/16 04:29:35;;;;;;;18.00;9.95;;;;;;;5.81;66.80;101539.56;1739130;82;21257;-68
2021/10/16 04:32:11;;;;;;;19.90;10.72;;;;;;;6.58;64.86;101535.67;1740848;82;21253;-69
2021/10/16 04:34:45;;;;;;;30.85;11.93;;;;;;;7.30;62.88;101536.56;1739346;82;21304;-67
2021/10/16 04:37:21;;;;;;;24.57;12.95;;;;;;;7.83;61.20;101542.20;1740664;82;21257;-68
2021/10/16 04:39:59;;;;;;;25.23;13.72;;;;;;;8.52;59.62;101533.39;1738985;82;21269;-66
2021/10/16 04:42:39;;;;;;;20.80;11.40;;;;;;;9.20;57.32;101528.30;1739290;82;21308;-67
2021/10/16 04:45:16;;;;;;;21.25;10.78;;;;;;;9.89;55.67;101534.70;1739979;82;21277;-66
2021/10/16 04:47:51;;;;;;;18.75;10.00;;;;;;;10.61;53.46;101531.11;1739433;82;21162;-67
2021/10/16 04:50:28;;;;;;;20.57;11.38;;;;;;;11.20;51.65;101537.41;1740052;82;21290;-68
2021/10/16 04:53:01;;;;;;;25.15;12.55;;;;;;;11.77;50.28;101535.52;1740581;82;21186;-67
2021/10/16 04:55:36;;;;;;;100.78;41.10;;;;;;;12.23;48.51;101542.94;1740125;82;21276;-67
2021/10/16 04:58:09;;;;;;;30.80;15.25;;;;;;;12.53;46.85;101535.84;1741353;82;21253;-69
2021/10/16 05:00:48;;;;;;;44.08;20.80;;;;;;;12.70;45.80;101535.39;1737189;81;21237;-69
2021/10/16 05:03:27;;;;;;;27.07;15.28;;;;;;;12.91;44.92;101531.56;1741676;82;21283;-66
2021/10/16 05:06:02;;;;;;;32.35;16.00;;;;;;;13.32;43.91;101531.79;1741421;82;21319;-64
2021/10/16 05:08:38;;;;;;;21.80;12.18;;;;;;;13.78;42.66;101529.72;1737208;82;21272;-66
2021/10/16 05:11:14;;;;;;;23.80;14.10;;;;;;;13.65;41.77;101525.59;1742116;82;21280;-69
2021/10/16 05:13:51;;;;;;;20.52;13.00;;;;;;;13.52;41.75;101534.95;1741819;82;21284;-64
2021/10/16 05:16:27;;;;;;;21.62;13.78;;;;;;;13.83;41.48;101532.81;1740301;81;21263;-66
2021/10/16 05:19:01;;;;;;;27.85;13.28;;;;;;;14.48;40.74;101534.41;1738901;82;21362;-66
2021/10/16 05:21:38;;;;;;;21.23;12.28;;;;;;;14.91;39.84;101531.09;1737573;82;21275;-67
2021/10/16 05:24:14;;;;;;;19.87;12.63;;;;;;;15.37;38.74;101526.09;1736907;81;21295;-65
2021/10/16 05:26:47;;;;;;;16.90;11.12;;;;;;;15.96;37.95;101525.19;1736763;82;21358;-65
2021/10/16 05:29:22;;;;;;;18.82;11.25;;;;;;;16.56;36.90;101520.88;1737188;82;21208;-65
2021/10/16 05:31:55;;;;;;;;;;;;;;;17.06;35.96;101517.39;1744549;82;21185;-62
2021/10/16 05:34:31;;;;;;;18.12;11.05;;;;;;;17.55;35.19;101520.12;1741540;82;20223;-64
2021/10/16 05:37:05;;;;;;;20.77;12.23;;;;;;;17.96;34.36;101520.01;1740985;82;21150;-63
2021/10/16 05:39:41;;;;;;;20.90;12.60;;;;;;;18.37;33.66;101525.93;1741343;82;21310;-63
2021/10/16 05:42:23;;;;;;;17.35;11.08;;;;;;;18.71;33.06;101529.49;1741960;82;21260;-62
2021/10/16 05:45:01;;;;;;;15.95;10.45;;;;;;;19.52;32.21;101524.99;1741485;82;21256;-64
2021/10/16 05:47:37;;;;;;;13.53;9.23;;;;;;;19.52;32.21;101524.99;1741146;82;21272;-66
2021/10/16 05:50:17;;;;;;;13.60;9.05;;;;;;;20.05;31.50;101528.05;1741544;81;21252;-66
2021/10/16 05:52:58;;;;;;;12.55;9.13;;;;;;;20.51;30.63;101522.54;1742317;82;21287;-66
2021/10/16 05:55:33;;;;;;;15.18;9.55;;;;;;;21.03;30.01;101517.53;1741388;82;21281;-67
2021/10/16 05:58:11;;;;;;;15.35;9.03;;;;;;;21.42;29.30;101521.84;1742048;82;21122;-67
2021/10/16 06:00:48;;;;;;;13.62;8.93;;;;;;;21.77;29.04;101519.62;1705711;84;21157;-66
2021/10/16 06:03:31;;;;;;;13.58;8.18;;;;;;;22.18;28.36;101524.14;1706541;83;21295;-67
2021/10/16 06:06:07;;;;;;;12.43;7.70;;;;;;;22.61;28.01;101526.08;1712450;84;21185;-67
2021/10/16 06:08:43;;;;;;;8.95;7.53;;;;;;;23.03;27.35;101522.22;1713903;84;21286;-66
2021/10/16 06:11:23;;;;;;;13.88;7.72;;;;;;;23.35;27.12;101513.82;1712514;83;21167;-66
2021/10/16 06:13:58;;;;;;;14.98;8.45;;;;;;;23.78;26.71;101517.34;1712779;83;21200;-66
2021/10/16 06:16:41;;;;;;;11.18;7.83;;;;;;;24.11;26.01;101518.99;1713061;84;21187;-67
2021/10/16 06:19:16;;;;;;;11.60;7.33;;;;;;;24.38;25.54;101507.47;1713843;84;21259;-66
2021/10/16 06:21:49;;;;;;;13.20;8.40;;;;;;;24.59;25.46;101494.52;1712837;84;21160;-66
2021/10/16 06:24:24;;;;;;;18.20;11.38;;;;;;;24.82;25.05;101485.70;1712426;84;21163;-67
2021/10/16 06:26:59;;;;;;;14.43;9.65;;;;;;;24.90;24.77;101485.53;1712952;84;21338;-70
2021/10/16 06:29:36;;;;;;;17.40;9.88;;;;;;;24.41;25.09;101489.66;1712240;84;21180;-68
2021/10/16 06:32:13;;;;;;;15.75;8.93;;;;;;;24.24;25.38;101490.17;1712923;84;21247;-67
2021/10/16 06:34:48;;;;;;;13.13;8.20;;;;;;;24.47;25.39;101484.87;1713899;84;21517;-67
2021/10/16 06:37:29;;;;;;;9.90;6.97;;;;;;;24.60;25.31;101476.91;1712468;83;21148;-69
2021/10/16 06:40:04;;;;;;;12.50;8.18;;;;;;;24.65;25.51;101465.59;1714090;84;21247;-67
2021/10/16 06:42:39;;;;;;;10.82;5.85;;;;;;;24.37;25.68;101470.17;1713703;82;21269;-68
2021/10/16 06:45:40;;;;;;;11.57;7.15;;;;;;;23.51;26.38;101460.62;1706369;82;21224;-72
2021/10/16 06:48:19;;;;;;;16.97;10.23;;;;;;;22.42;27.74;101450.53;1691344;84;22065;-71
2021/10/16 06:51:03;;;;;;;14.18;9.25;;;;;;;21.55;28.71;101450.66;1691688;84;21352;-71
2021/10/16 06:53:38;;;;;;;13.80;8.63;;;;;;;20.69;29.89;101442.81;1712442;84;21846;-69
2021/10/16 06:56:11;;;;;;;17.27;8.48;;;;;;;19.74;31.37;101445.98;1708454;84;21659;-69
2021/10/16 06:58:48;;;;;;;19.42;12.40;;;;;;;19.03;32.66;101441.73;1704596;84;21200;-69
2021/10/16 07:01:25;;;;;;;12.68;7.92;;;;;;;18.39;33.82;101439.63;1707510;84;21338;-70
2021/10/16 07:04:01;;;;;;;12.07;7.97;;;;;;;17.79;34.78;101448.81;1708060;84;21326;-69
2021/10/16 07:06:36;;;;;;;13.80;6.67;;;;;;;17.20;36.00;101445.44;1705368;84;21271;-71
2021/10/16 07:09:14;;;;;;;11.50;6.90;;;;;;;16.82;37.07;101437.73;1683998;84;21322;-69
2021/10/16 07:11:49;;;;;;;8.85;6.67;;;;;;;16.51;38.04;101436.33;1710325;84;21330;-70
2021/10/16 07:14:23;;;;;;;18.30;10.55;;;;;;;16.26;38.94;101428.58;1708873;84;21162;-69
2021/10/16 07:17:02;;;;;;;7.50;4.75;;;;;;;15.99;39.48;101433.30;1684085;84;21283;-69
2021/10/16 07:19:36;;;;;;;14.53;8.13;;;;;;;15.67;39.81;101434.58;1709963;84;21219;-69
2021/10/16 07:22:10;;;;;;;10.00;5.42;;;;;;;15.40;40.72;101433.44;1709087;84;21219;-69
2021/10/16 07:24:44;;;;;;;9.00;4.92;;;;;;;15.19;40.94;101427.97;1710236;84;21232;-69
2021/10/16 07:27:18;;;;;;;4.47;2.83;;;;;;;14.92;41.30;101434.37;1712150;84;22071;-68
2021/10/16 07:29:53;;;;;;;7.20;2.22;;;;;;;14.64;41.13;101437.28;1709664;84;21346;-68
2021/10/16 07:32:31;;;;;;;3.25;2.47;;;;;;;14.37;41.22;101437.86;1710871;84;21255;-69
2021/10/16 07:35:10;;;;;;;5.05;2.40;;;;;;;14.09;41.41;101445.10;1714242;84;21267;-68
2021/10/16 07:37:48;;;;;;;3.70;2.15;;;;;;;13.86;41.96;101440.44;1711424;84;21346;-69
2021/10/16 07:40:21;;;;;;;4.40;2.12;;;;;;;13.64;42.76;101439.23;1711513;84;21311;-69
2021/10/16 07:42:54;;;;;;;4.67;2.77;;;;;;;13.44;43.51;101433.48;1709000;84;21350;-69
2021/10/16 07:45:28;;;;;;;3.67;2.42;;;;;;;13.33;43.92;101425.61;1708707;84;22024;-69
2021/10/16 07:48:01;;;;;;;8.65;3.90;;;;;;;13.25;44.25;101424.95;1706175;84;21404;-68
2021/10/16 07:50:41;;;;;;;9.35;3.85;;;;;;;13.20;44.51;101433.69;1706463;82;21667;-69
2021/10/16 07:53:13;;;;;;;;;;;;;;;13.13;44.89;101426.41;1712411;84;21232;-67
2021/10/16 07:55:49;;;;;;;20.68;9.13;;;;;;;13.09;45.15;101423.66;1698879;84;20613;-67
2021/10/16 07:58:23;;;;;;;32.23;12.73;;;;;;;13.07;45.51;101417.22;1712798;84;21180;-68
2021/10/16 08:01:01;;;;;;;20.32;10.25;;;;;;;13.14;45.50;101410.97;1712501;83;21204;-67
2021/10/16 08:03:34;;;;;;;13.62;6.30;;;;;;;13.15;45.52;101410.03;1712564;84;21283;-67
2021/10/16 08:06:10;;;;;;;12.85;6.25;;;;;;;13.20;45.69;101409.18;1713823;84;21137;-65
2021/10/16 08:08:43;;;;;;;7.53;3.98;;;;;;;13.28;45.86;101415.94;1712788;84;21227;-67
2021/10/16 08:11:19;;;;;;;6.55;3.22;;;;;;;13.35;45.46;101406.12;1713854;83;21203;-69
2021/10/16 08:14:00;;;;;;;4.67;2.62;;;;;;;13.45;45.28;101408.35;1712822;84;21326;-68
2021/10/16 08:16:38;;;;;;;10.77;5.90;;;;;;;13.50;44.97;101394.81;1714289;84;21121;-66
2021/10/16 08:19:15;;;;;;;9.50;5.67;;;;;;;13.57;44.79;101394.66;1712928;83;21392;-67
2021/10/16 08:21:50;;;;;;;14.80;7.03;;;;;;;13.58;44.30;101393.70;1714102;84;21192;-66
2021/10/16 08:24:25;;;;;;;6.92;4.55;;;;;;;13.58;44.65;101389.77;1712785;84;21734;-68
2021/10/16 08:27:02;;;;;;;6.58;2.75;;;;;;;13.62;44.87;101388.53;1713999;84;21287;-68
2021/10/16 08:29:36;;;;;;;6.45;3.47;;;;;;;13.72;44.65;101381.55;1712626;84;21807;-67
2021/10/16 08:32:13;;;;;;;6.92;4.12;;;;;;;13.82;44.37;101377.19;1711060;84;22125;-68
2021/10/16 08:34:48;;;;;;;6.05;3.17;;;;;;;13.91;44.36;101372.92;1711778;84;21345;-64
2021/10/16 08:37:24;;;;;;;7.17;3.65;;;;;;;13.98;44.49;101378.86;1712091;84;21163;-68
2021/10/16 08:39:59;;;;;;;6.67;3.35;;;;;;;14.10;44.58;101383.55;1713621;84;21155;-66
2021/10/16 08:42:34;;;;;;;6.45;3.87;;;;;;;14.27;44.42;101382.11;1713371;84;21350;-67
2021/10/16 08:45:12;;;;;;;7.83;3.72;;;;;;;14.46;43.74;101388.80;1711825;83;21136;-67
2021/10/16 08:47:48;;;;;;;7.42;3.65;;;;;;;14.65;43.78;101382.27;1709000;82;21214;-66
2021/10/16 08:50:22;;;;;;;5.55;3.00;;;;;;;14.87;43.16;101374.61;1710613;82;21341;-68
2021/10/16 08:52:56;;;;;;;7.03;3.27;;;;;;;14.99;42.57;101378.80;1708904;84;21358;-70
2021/10/16 08:55:35;;;;;;;4.87;2.90;;;;;;;15.08;42.22;101383.24;1708951;84;21236;-70
2021/10/16 08:58:18;;;;;;;5.37;3.05;;;;;;;15.14;41.85;101378.75;1709045;84;21490;-68
2021/10/16 09:00:56;;;;;;;4.75;3.10;;;;;;;15.24;42.09;101374.28;1708395;84;21654;-66
2021/10/16 09:03:35;;;;;;;13.22;5.85;;;;;;;15.33;41.53;101359.77;1707924;83;21816;-67
2021/10/16 09:06:28;;;;;;;13.55;9.70;;;;;;;15.33;41.57;101361.09;1709340;84;21334;-68
2021/10/16 09:09:09;;;;;;;7.37;5.03;;;;;;;15.34;41.37;101359.30;1709230;84;21322;-65
2021/10/16 09:11:46;;;;;;;5.45;3.50;;;;;;;15.33;41.91;101355.81;1709852;84;21245;-67
2021/10/16 09:14:27;;;;;;;6.28;2.92;;;;;;;15.37;41.69;101358.55;1709255;84;21498;-67
2021/10/16 09:17:02;;;;;;;3.85;2.10;;;;;;;15.44;41.21;101355.72;1707642;83;21498;-70
2021/10/16 09:19:39;;;;;;;4.55;2.52;;;;;;;15.44;40.54;101346.48;1713038;84;21287;-65
2021/10/16 09:22:22;;;;;;;8.68;4.80;;;;;;;15.37;40.72;101344.52;1713991;84;21299;-67
2021/10/16 09:24:58;;;;;;;5.25;3.30;;;;;;;15.30;41.43;101333.70;1712297;84;21333;-67
2021/10/16 09:27:36;;;;;;;3.75;1.90;;;;;;;15.31;41.50;101335.34;1660253;84;21212;-68
2021/10/16 09:30:16;;;;;;;;;;;;;;;15.27;40.24;101335.28;1710576;84;22130;-67
2021/10/16 09:32:50;;;;;;;3.33;2.20;;;;;;;15.13;40.18;101336.19;1695486;84;20212;-68
2021/10/16 09:35:28;;;;;;;3.75;1.85;;;;;;;15.01;40.12;101335.98;1713765;84;21204;-69
2021/10/16 09:38:04;;;;;;;5.25;2.05;;;;;;;15.02;39.88;101331.06;1711545;84;21838;-67
2021/10/16 09:40:41;;;;;;;3.72;1.60;;;;;;;14.99;39.75;101316.83;1713981;84;21893;-67
2021/10/16 09:43:26;;;;;;;1.98;1.67;;;;;;;14.95;39.45;101331.27;1712205;84;21675;-66
2021/10/16 09:46:17;;;;;;;3.25;1.70;;;;;;;14.85;39.23;101317.56;1714319;84;21266;-61
2021/10/16 09:48:55;;;;;;;4.80;1.80;;;;;;;14.79;39.45;101309.38;1712078;84;21307;-66
2021/10/16 09:51:33;;;;;;;4.95;1.75;;;;;;;14.76;39.56;101302.58;1712682;82;21280;-67
2021/10/16 09:54:10;;;;;;;4.28;2.30;;;;;;;14.74;39.53;101300.58;1713808;84;21809;-66
2021/10/16 09:56:50;;;;;;;3.25;1.70;;;;;;;14.77;39.58;101291.56;1714470;84;21199;-66
2021/10/16 09:59:27;;;;;;;7.08;1.80;;;;;;;14.84;39.39;101292.67;1714724;84;21314;-66
2021/10/16 10:02:06;;;;;;;9.98;4.00;;;;;;;14.88;39.48;101279.55;1712972;84;21264;-66
2021/10/16 10:04:46;;;;;;;3.40;1.95;;;;;;;14.96;39.46;101281.50;1713505;84;21294;-69
2021/10/16 10:07:25;;;;;;;3.80;3.40;;;;;;;15.04;39.38;101275.89;1714066;84;21248;-67
2021/10/16 10:10:03;;;;;;;8.28;3.72;;;;;;;15.16;39.38;101268.18;1709553;84;21264;-67
2021/10/16 10:12:40;;;;;;;3.62;2.70;;;;;;;15.27;39.12;101271.13;1706287;84;21267;-65
2021/10/16 10:15:19;;;;;;;5.25;3.02;;;;;;;15.35;39.11;101270.78;1741431;82;21169;-65
2021/10/16 10:17:58;;;;;;;4.28;1.90;;;;;;;15.46;39.01;101263.20;1740552;81;21719;-67
2021/10/16 10:20:30;;;;;;;3.67;2.12;;;;;;;15.58;38.78;101253.30;1740983;82;21292;-66
2021/10/16 10:23:28;;;;;;;29.75;17.90;;;;;;;15.70;38.53;101263.55;1742164;82;21268;-67
2021/10/16 10:26:25;;;;;;;6.85;4.30;;;;;;;15.72;38.06;101253.67;1740486;81;21208;-66
2021/10/16 10:29:06;;;;;;;9.78;4.75;;;;;;;15.66;37.97;101257.39;1704094;84;21772;-65
2021/10/16 10:31:58;;;;;;;;;;;;;;;15.55;38.59;101235.95;1708594;84;21276;-65
2021/10/16 10:34:36;;;;;;;30.97;14.98;;;;;;;15.41;38.72;101237.22;1691519;85;20169;-67
2021/10/16 10:37:15;;;;;;;162.20;77.12;;;;;;;15.22;38.94;101235.94;1742146;82;21241;-67
2021/10/16 10:39:53;;;;;;;160.52;77.80;;;;;;;15.06;38.85;101230.91;1742088;82;21287;-66
2021/10/16 10:42:35;;;;;;;42.03;21.97;;;;;;;14.91;39.46;101230.50;1740881;82;21422;-64
2021/10/16 10:45:31;;;;;;;86.67;40.60;;;;;;;14.83;39.80;101228.56;1742065;82;21287;-68
2021/10/16 10:48:10;;;;;;;81.60;38.85;;;;;;;14.81;39.69;101217.81;1742520;82;21183;-68
2021/10/16 10:50:56;;;;;;;85.03;43.60;;;;;;;14.72;39.89;101222.61;1741432;81;21319;-66
2021/10/16 10:53:33;;;;;;;19.00;9.63;;;;;;;14.67;39.93;101216.92;1742070;82;21276;-67
2021/10/16 10:56:20;;;;;;;5.58;3.10;;;;;;;14.64;40.16;101217.22;1741518;82;21280;-65
2021/10/16 10:58:58;;;;;;;42.33;22.95;;;;;;;14.62;40.57;101213.38;1742196;82;21241;-67
2021/10/16 11:01:51;;;;;;;51.68;30.92;;;;;;;14.59;40.54;101207.06;1741106;82;21169;-67
2021/10/16 11:04:49;;;;;;;19.02;10.32;;;;;;;14.57;40.32;101195.83;1742162;82;21252;-67
2021/10/16 11:07:39;;;;;;;37.90;15.50;;;;;;;14.53;40.62;101181.77;1741704;82;21170;-66
2021/10/16 11:10:11;;;;;;;34.90;16.90;;;;;;;14.52;40.86;101183.56;1744131;81;21271;-65
2021/10/16 11:12:46;;;;;;;;;;;;;;;14.57;41.02;101177.39;1756898;82;22094;-66
2021/10/16 11:15:24;;;;;;;49.42;22.70;;;;;;;14.62;40.89;101180.92;1717955;83;20704;-66
2021/10/16 11:18:00;;;;;;;21.37;10.82;;;;;;;14.58;41.07;101177.75;1718178;83;21659;-65
2021/10/16 11:20:37;;;;;;;35.92;16.73;;;;;;;14.57;41.53;101175.23;1719493;83;21322;-65
2021/10/16 11:23:26;;;;;;;32.50;15.03;;;;;;;14.58;41.41;101178.23;1717821;83;21148;-67
2021/10/16 11:26:04;;;;;;;52.60;23.77;;;;;;;14.59;41.49;101175.95;1719219;83;21219;-65
2021/10/16 11:28:43;;;;;;;54.80;26.52;;;;;;;14.61;41.45;101176.64;1719289;83;21303;-67
2021/10/16 11:31:23;;;;;;;77.45;35.58;;;;;;;14.62;41.27;101177.80;1718870;83;21314;-67
2021/10/16 11:34:01;;;;;;;13.95;7.15;;;;;;;14.64;41.23;101177.17;1719406;83;21302;-64
2021/10/16 11:36:41;;;;;;;5.35;3.08;;;;;;;14.65;41.61;101176.70;1672649;83;21271;-67
2021/10/16 11:39:15;;;;;;;10.88;2.95;;;;;;;14.66;41.48;101177.05;1719511;83;21723;-65
2021/10/16 11:41:55;;;;;;;4.33;1.90;;;;;;;14.64;41.55;101177.17;1718700;83;21223;-64
2021/10/16 11:44:28;;;;;;;3.77;2.10;;;;;;;14.64;41.67;101171.91;1719288;83;21901;-66
2021/10/16 11:47:07;;;;;;;3.98;2.22;;;;;;;14.64;41.67;101174.54;1718894;83;21267;-66
2021/10/16 11:49:41;;;;;;;3.90;2.00;;;;;;;14.64;41.60;101172.41;1719401;82;21195;-65
2021/10/16 11:52:33;;;;;;;3.75;2.60;;;;;;;14.67;41.63;101165.52;1718677;83;21187;-66
2021/10/16 11:55:29;;;;;;;5.37;3.77;;;;;;;14.69;41.90;101167.53;1718101;83;21160;-65
2021/10/16 11:58:07;;;;;;;4.10;2.65;;;;;;;14.73;41.98;101161.02;1719503;83;21274;-65
2021/10/16 12:00:44;;;;;;;5.85;2.60;;;;;;;14.79;41.83;101161.77;1719517;83;21187;-66
2021/10/16 12:03:20;;;;;;;4.45;3.47;;;;;;;14.82;41.88;101167.60;1718808;83;21279;-65
2021/10/16 12:05:56;;;;;;;4.97;2.87;;;;;;;14.84;41.95;101164.81;1718450;83;21326;-67